Time;durP1;ratioP1;P1;durP2;ratioP2;P2;SDS_P1;SDS_P2;PMS_P1;PMS_P2;Temp;Humidity;BMP_temperature;BMP_pressure;BME280_temperature;BME280_humidity;BME280_pressure;Samples;Min_cycle;Max_cycle;Signal;HPM_P1;HPM_P2
2022/03/27 00:00:21;;;;;;;7.90;2.60;;;;;;;0.11;60.03;101815.66;88117;1279;78807;-75
2022/03/27 00:02:52;;;;;;;7.30;2.70;;;;;;;0.12;60.07;101811.12;88108;1279;81487;-74
2022/03/27 00:05:05;;;;;;;7.50;2.50;;;;;;;0.16;60.23;101816.77;88106;1279;99517;-75
2022/03/27 00:07:17;;;;;;;7.20;3.20;;;;;;;0.21;60.70;101813.11;88029;1281;86632;-76
2022/03/27 00:09:31;;;;;;;7.50;3.00;;;;;;;0.22;60.63;101816.56;88069;1279;94720;-74
2022/03/27 00:11:43;;;;;;;8.10;2.80;;;;;;;0.24;60.83;101818.37;88166;1279;78081;-73
2022/03/27 00:13:56;;;;;;;5.70;2.40;;;;;;;0.24;60.80;101824.56;88109;1279;80932;-75
2022/03/27 00:16:06;;;;;;;;;;;;;;;0.23;60.73;101826.09;88066;1281;99596;-76
2022/03/27 00:18:19;;;;;;;10.20;3.40;;;;;;;0.21;60.78;101829.38;88076;1279;86482;-74
2022/03/27 00:20:33;;;;;;;7.10;2.60;;;;;;;0.21;60.69;101829.75;88110;1279;93324;-73
2022/03/27 00:22:44;;;;;;;6.90;3.00;;;;;;;0.19;60.87;101827.58;88072;1279;77588;-75
2022/03/27 00:24:53;;;;;;;7.50;2.90;;;;;;;0.17;60.88;101823.42;88064;1279;80531;-76
2022/03/27 00:27:02;;;;;;;10.80;3.30;;;;;;;0.14;61.02;101817.77;88029;1279;98115;-77
2022/03/27 00:29:15;;;;;;;7.30;3.10;;;;;;;0.13;61.00;101819.42;88047;1279;87830;-76
2022/03/27 00:31:28;;;;;;;9.50;3.50;;;;;;;0.10;61.13;101817.84;88075;1279;94299;-73
2022/03/27 00:33:39;;;;;;;10.30;3.50;;;;;;;0.06;60.98;101817.86;88055;1279;78093;-74
2022/03/27 00:35:48;;;;;;;9.80;3.60;;;;;;;0.03;61.11;101814.14;88035;1279;83493;-75
2022/03/27 00:37:57;;;;;;;9.10;3.50;;;;;;;0.02;61.01;101821.63;88030;1279;100280;-76
2022/03/27 00:40:09;;;;;;;9.40;3.40;;;;;;;0.00;61.17;101819.80;88056;1279;88608;-76
2022/03/27 00:42:20;;;;;;;8.80;2.40;;;;;;;-0.02;61.11;101819.34;88018;1279;95612;-76
2022/03/27 00:44:28;;;;;;;8.50;3.00;;;;;;;-0.04;61.04;101815.21;88045;1279;77792;-75
2022/03/27 00:46:38;;;;;;;11.00;3.10;;;;;;;-0.09;60.91;101816.96;88052;1279;80404;-77
2022/03/27 00:48:47;;;;;;;8.00;2.60;;;;;;;-0.14;61.04;101818.64;88023;1279;99670;-76
2022/03/27 00:50:57;;;;;;;6.20;2.60;;;;;;;-0.19;61.12;101817.16;88057;1279;89996;-77
2022/03/27 00:53:06;;;;;;;8.80;2.60;;;;;;;-0.24;61.23;101825.04;88050;1279;94317;-76
2022/03/27 00:55:18;;;;;;;8.20;3.20;;;;;;;-0.29;61.04;101824.13;88046;1279;77513;-75
2022/03/27 00:57:27;;;;;;;7.40;2.50;;;;;;;-0.35;61.30;101821.10;88016;1279;79609;-76
2022/03/27 00:59:36;;;;;;;7.10;2.80;;;;;;;-0.43;61.35;101826.30;88040;1279;99221;-77
2022/03/27 01:01:45;;;;;;;9.20;2.70;;;;;;;-0.48;61.41;101826.27;88044;1279;88511;-76
2022/03/27 01:03:54;;;;;;;11.40;2.70;;;;;;;-0.51;61.68;101821.31;88016;1279;95537;-76
2022/03/27 01:06:04;;;;;;;6.00;2.60;;;;;;;-0.52;61.65;101825.05;88024;1279;79619;-75
2022/03/27 01:09:35;;;;;;;6.70;2.60;;;;;;;-0.51;61.73;101825.02;88047;1279;80148;-75
2022/03/27 01:10:47;;;;;;;9.00;2.40;;;;;;;-0.51;61.85;101825.52;88038;1279;97619;-76
2022/03/27 01:12:56;;;;;;;7.30;2.50;;;;;;;-0.49;62.15;101823.98;88044;1279;87377;-76
2022/03/27 01:15:24;;;;;;;6.50;2.40;;;;;;;-0.45;62.16;101824.99;88056;1279;94146;-75
2022/03/27 01:17:36;;;;;;;6.10;2.10;;;;;;;-0.40;62.28;101828.08;88015;1279;79401;-74
2022/03/27 01:19:48;;;;;;;8.30;2.50;;;;;;;-0.38;62.29;101826.89;88037;1278;82793;-74
2022/03/27 01:22:00;;;;;;;7.80;2.10;;;;;;;-0.36;62.10;101828.05;88056;1279;100653;-76
2022/03/27 01:24:11;;;;;;;6.70;2.40;;;;;;;-0.36;62.33;101826.30;88031;1279;89651;-76
2022/03/27 01:26:22;;;;;;;7.10;2.20;;;;;;;-0.38;62.28;101829.77;88008;1279;96093;-75
2022/03/27 01:28:31;;;;;;;6.90;2.50;;;;;;;-0.41;62.15;101827.61;88044;1279;77439;-75
2022/03/27 01:30:40;;;;;;;7.60;2.70;;;;;;;-0.44;62.16;101825.67;88057;1279;83163;-75
2022/03/27 01:32:52;;;;;;;7.20;2.10;;;;;;;-0.47;62.35;101826.39;88034;1279;98739;-74
2022/03/27 01:35:02;;;;;;;10.10;2.20;;;;;;;-0.53;62.38;101830.04;88037;1279;87820;-74
2022/03/27 01:37:15;;;;;;;5.90;2.50;;;;;;;-0.57;62.65;101833.10;88019;1279;94857;-76
2022/03/27 01:39:25;;;;;;;11.40;2.10;;;;;;;-0.60;62.36;101830.10;88048;1279;77071;-77
2022/03/27 01:41:39;;;;;;;7.40;2.30;;;;;;;-0.64;62.79;101831.32;88015;1281;82492;-77
2022/03/27 01:43:49;;;;;;;6.30;2.40;;;;;;;-0.67;62.45;101826.20;88032;1279;100228;-78
2022/03/27 01:45:58;;;;;;;6.70;2.40;;;;;;;-0.72;62.61;101828.07;88024;1279;88064;-77
2022/03/27 01:48:09;;;;;;;6.70;2.40;;;;;;;-0.75;62.86;101828.26;87993;1279;95872;-77
2022/03/27 01:50:18;;;;;;;8.40;2.30;;;;;;;-0.77;62.87;101832.09;87983;1279;79860;-75
2022/03/27 01:52:29;;;;;;;7.90;2.60;;;;;;;-0.81;62.96;101839.35;87993;1279;82291;-74
2022/03/27 01:54:38;;;;;;;6.00;3.00;;;;;;;-0.86;63.14;101836.77;87980;1279;98887;-74
2022/03/27 01:56:48;;;;;;;8.10;2.50;;;;;;;-0.88;63.07;101840.97;88071;1279;87720;-78
2022/03/27 01:58:58;;;;;;;7.80;2.20;;;;;;;-0.91;63.16;101841.12;88033;1279;94814;-76
2022/03/27 02:01:08;;;;;;;6.30;2.50;;;;;;;-0.96;63.12;101845.14;87962;1279;81799;-76
2022/03/27 02:03:21;;;;;;;9.90;2.70;;;;;;;-1.00;63.54;101844.10;88037;1279;80429;-77
2022/03/27 02:05:31;;;;;;;7.80;2.80;;;;;;;-1.02;63.71;101847.05;88035;1279;99202;-74
2022/03/27 02:07:45;;;;;;;8.60;2.50;;;;;;;-1.02;63.52;101844.73;87977;1279;90665;-74
2022/03/27 02:09:54;;;;;;;5.80;2.40;;;;;;;-0.99;63.80;101847.56;88047;1279;94436;-74
2022/03/27 02:12:03;;;;;;;5.00;2.30;;;;;;;-0.94;63.71;101857.73;88024;1279;77977;-75
2022/03/27 02:14:12;;;;;;;8.60;2.70;;;;;;;-0.92;63.87;101860.10;88053;1279;81012;-74
2022/03/27 02:16:22;;;;;;;7.40;2.50;;;;;;;-0.91;63.90;101859.55;88009;1279;100113;-76
2022/03/27 02:18:35;;;;;;;5.90;2.80;;;;;;;-0.92;64.07;101858.17;88041;1279;87885;-77
2022/03/27 02:20:45;;;;;;;9.40;2.70;;;;;;;-0.98;64.10;101864.48;88029;1279;92988;-75
2022/03/27 02:22:54;;;;;;;11.40;3.30;;;;;;;-1.01;63.73;101864.98;88056;1279;78131;-75
2022/03/27 02:25:05;;;;;;;6.80;2.90;;;;;;;-1.06;64.18;101866.12;88043;1279;81001;-75
2022/03/27 02:27:14;;;;;;;8.90;2.70;;;;;;;-1.10;64.00;101869.89;88050;1279;96826;-75
2022/03/27 02:29:23;;;;;;;9.60;3.30;;;;;;;-1.19;63.98;101867.68;88033;1279;88218;-75
2022/03/27 02:31:32;;;;;;;7.90;3.00;;;;;;;-1.24;64.29;101867.27;88037;1279;94162;-76
2022/03/27 02:33:45;;;;;;;9.60;3.00;;;;;;;-1.30;64.36;101867.56;88009;1281;76906;-76
2022/03/27 02:35:55;;;;;;;8.10;3.00;;;;;;;-1.39;64.32;101868.91;88059;1279;79836;-75
2022/03/27 02:38:05;;;;;;;8.20;2.80;;;;;;;-1.44;64.58;101865.29;88027;1279;96977;-75
2022/03/27 02:40:17;;;;;;;6.80;3.00;;;;;;;-1.49;64.54;101870.14;88039;1279;87268;-76
2022/03/27 02:42:26;;;;;;;7.50;2.90;;;;;;;-1.54;64.57;101873.23;88022;1279;94722;-77
2022/03/27 02:44:34;;;;;;;9.00;2.60;;;;;;;-1.54;64.94;101876.95;88024;1279;81443;-77
2022/03/27 02:46:47;;;;;;;9.80;2.90;;;;;;;-1.53;64.88;101876.87;88050;1279;81108;-76
2022/03/27 02:48:56;;;;;;;9.70;3.20;;;;;;;-1.53;64.93;101883.25;88032;1279;99879;-76
2022/03/27 02:51:05;;;;;;;8.60;3.70;;;;;;;-1.57;64.84;101887.16;88053;1279;87832;-77
2022/03/27 02:53:14;;;;;;;7.00;2.70;;;;;;;-1.63;65.15;101887.64;88048;1279;92964;-77
2022/03/27 02:55:24;;;;;;;7.90;2.90;;;;;;;-1.66;65.35;101893.61;88046;1279;78651;-77
2022/03/27 02:57:36;;;;;;;6.60;2.70;;;;;;;-1.63;65.30;101895.94;88037;1279;82490;-77
2022/03/27 02:59:46;;;;;;;7.50;3.10;;;;;;;-1.61;65.49;101894.06;88049;1279;99958;-77
2022/03/27 03:01:55;;;;;;;10.50;3.20;;;;;;;-1.62;65.69;101893.22;87999;1279;88175;-75
2022/03/27 03:04:05;;;;;;;7.60;3.10;;;;;;;-1.61;65.45;101891.57;88015;1281;94924;-75
2022/03/27 03:06:14;;;;;;;8.10;3.30;;;;;;;-1.61;65.96;101893.70;88063;1279;76677;-76
2022/03/27 03:08:26;;;;;;;9.90;3.20;;;;;;;-1.65;65.86;101896.77;88048;1279;82948;-75
2022/03/27 03:10:37;;;;;;;9.10;3.10;;;;;;;-1.67;65.98;101894.88;88017;1280;99673;-77
2022/03/27 03:12:46;;;;;;;8.80;3.60;;;;;;;-1.69;65.95;101890.94;88018;1279;86603;-77
2022/03/27 03:14:56;;;;;;;9.80;3.40;;;;;;;-1.75;66.00;101899.17;88009;1280;94169;-78
2022/03/27 03:17:09;;;;;;;9.20;2.90;;;;;;;-1.80;65.84;101901.34;88008;1279;77404;-75
2022/03/27 03:19:18;;;;;;;7.00;3.10;;;;;;;-1.81;65.88;101906.87;88045;1280;82990;-75
2022/03/27 03:21:28;;;;;;;7.10;3.00;;;;;;;-1.84;65.99;101905.41;88024;1279;98851;-77
2022/03/27 03:23:36;;;;;;;9.20;3.20;;;;;;;-1.88;66.02;101901.20;88006;1279;89572;-77
2022/03/27 03:25:45;;;;;;;7.40;3.10;;;;;;;-1.89;66.21;101903.70;87963;1281;95413;-77
2022/03/27 03:27:54;;;;;;;6.60;3.00;;;;;;;-1.93;66.24;101911.14;88020;1279;79729;-78
2022/03/27 03:30:03;;;;;;;8.50;2.90;;;;;;;-1.95;66.40;101913.92;88019;1280;82373;-77
2022/03/27 03:32:13;;;;;;;8.30;3.30;;;;;;;-1.98;66.54;101909.29;86665;1279;1834540;-78
2022/03/27 03:34:22;;;;;;;10.20;3.10;;;;;;;-1.96;66.57;101910.27;88042;1279;87338;-78
2022/03/27 03:36:31;;;;;;;8.70;3.30;;;;;;;-1.96;66.74;101915.20;88011;1279;93881;-77
2022/03/27 03:38:41;;;;;;;10.50;3.00;;;;;;;-1.96;66.63;101917.85;88013;1280;77650;-78
2022/03/27 03:40:50;;;;;;;9.10;3.30;;;;;;;-1.96;66.84;101921.52;88040;1280;81557;-78
2022/03/27 03:43:00;;;;;;;8.90;3.40;;;;;;;-1.97;66.95;101934.63;88017;1279;98196;-78
2022/03/27 03:45:11;;;;;;;8.70;3.20;;;;;;;-1.95;66.80;101935.80;87997;1281;87881;-76
2022/03/27 03:47:20;;;;;;;7.80;3.00;;;;;;;-1.96;66.85;101939.16;88014;1281;95531;-76
2022/03/27 03:49:30;;;;;;;8.30;3.60;;;;;;;-1.99;66.97;101941.63;88010;1281;80373;-75
2022/03/27 03:51:39;;;;;;;9.00;3.00;;;;;;;-2.00;67.13;101944.86;88044;1281;81584;-77
2022/03/27 03:53:48;;;;;;;11.20;3.30;;;;;;;-2.03;67.07;101945.16;87996;1281;98980;-78
2022/03/27 03:55:57;;;;;;;10.10;3.20;;;;;;;-2.08;67.11;101944.33;88039;1281;89101;-76
2022/03/27 03:58:07;;;;;;;8.50;3.00;;;;;;;-2.10;66.82;101953.45;88035;1280;95402;-76
2022/03/27 04:00:18;;;;;;;11.20;3.90;;;;;;;-2.13;67.31;101957.50;88058;1280;81731;-76
2022/03/27 04:02:29;;;;;;;6.80;2.80;;;;;;;-2.16;67.13;101957.80;88027;1280;83066;-76
2022/03/27 04:04:39;;;;;;;8.20;3.10;;;;;;;-2.15;67.22;101956.00;88025;1281;97524;-76
2022/03/27 04:06:48;;;;;;;8.50;2.70;;;;;;;-2.14;67.30;101955.37;88036;1281;89539;-78
2022/03/27 04:08:57;;;;;;;8.40;3.20;;;;;;;-2.13;67.51;101957.10;87995;1281;95023;-78
2022/03/27 04:11:07;;;;;;;10.40;3.50;;;;;;;-2.11;67.59;101958.80;88015;1281;79130;-77
2022/03/27 04:13:16;;;;;;;9.40;3.60;;;;;;;-2.09;67.65;101956.41;88011;1281;80581;-77
2022/03/27 04:15:26;;;;;;;8.70;3.20;;;;;;;-2.08;67.58;101959.17;88033;1281;99549;-78
2022/03/27 04:17:41;;;;;;;9.00;3.80;;;;;;;-2.03;67.80;101966.70;88038;1281;88803;-78
2022/03/27 04:19:51;;;;;;;8.40;3.30;;;;;;;-1.98;67.83;101964.70;87994;1281;93638;-78
2022/03/27 04:22:01;;;;;;;12.50;3.60;;;;;;;-1.95;67.72;101964.73;88011;1281;77958;-78
2022/03/27 04:24:11;;;;;;;10.70;4.90;;;;;;;-1.95;67.70;101967.56;88042;1281;82505;-78
2022/03/27 04:26:20;;;;;;;8.30;3.30;;;;;;;-1.97;67.70;101974.16;88026;1281;98595;-76
2022/03/27 04:28:28;;;;;;;9.50;3.30;;;;;;;-1.97;67.59;101978.07;88004;1280;88770;-76
2022/03/27 04:30:38;;;;;;;15.00;3.60;;;;;;;-2.01;67.87;101977.55;88063;1280;93969;-78
2022/03/27 04:32:49;;;;;;;8.40;3.40;;;;;;;-2.02;67.86;101980.77;87992;1281;79775;-78
2022/03/27 04:35:02;;;;;;;10.40;3.50;;;;;;;-2.00;68.03;101986.30;88061;1280;81979;-78
2022/03/27 04:37:12;;;;;;;7.30;3.30;;;;;;;-1.97;67.93;101986.55;87993;1281;99013;-78
2022/03/27 04:39:25;;;;;;;9.60;3.40;;;;;;;-1.91;68.15;101984.66;87927;1281;86891;-78
2022/03/27 04:41:34;;;;;;;9.80;3.70;;;;;;;-1.83;68.05;101983.21;87970;1281;94435;-78
2022/03/27 04:43:47;;;;;;;9.00;3.30;;;;;;;-1.76;68.12;101986.98;87969;1281;78890;-77
2022/03/27 04:45:59;;;;;;;9.60;3.30;;;;;;;-1.65;68.22;101988.05;88034;1280;83369;-76
2022/03/27 04:48:09;;;;;;;11.10;3.20;;;;;;;-1.56;68.10;101988.30;87994;1281;100217;-75
2022/03/27 04:50:18;;;;;;;7.00;3.10;;;;;;;-1.44;68.26;101993.90;88038;1280;89298;-76
2022/03/27 04:52:28;;;;;;;8.20;3.30;;;;;;;-1.29;68.29;101994.41;88028;1281;94046;-76
2022/03/27 04:54:37;;;;;;;9.60;3.40;;;;;;;-1.18;68.21;102001.09;88024;1280;79760;-75
2022/03/27 04:56:46;;;;;;;10.00;3.80;;;;;;;-1.04;68.00;102000.57;88001;1281;83300;-78
2022/03/27 04:58:57;;;;;;;10.50;3.30;;;;;;;-0.89;68.17;101998.77;88017;1281;98326;-78
2022/03/27 05:01:07;;;;;;;8.00;3.20;;;;;;;-0.76;67.99;101998.29;88009;1281;89360;-76
2022/03/27 05:03:16;;;;;;;8.40;3.40;;;;;;;-0.65;67.74;101995.36;87983;1281;95334;-76
2022/03/27 05:05:28;;;;;;;6.00;2.90;;;;;;;-0.58;67.72;101996.09;87959;1281;78909;-76
2022/03/27 05:07:38;;;;;;;9.80;3.40;;;;;;;-0.43;67.60;101998.66;88023;1279;82240;-75
2022/03/27 05:09:47;;;;;;;9.60;3.70;;;;;;;-0.29;67.43;101999.85;87982;1279;100039;-76
2022/03/27 05:11:56;;;;;;;8.20;3.00;;;;;;;-0.13;67.18;102002.55;88030;1281;89307;-78
2022/03/27 05:14:06;;;;;;;9.30;3.50;;;;;;;0.12;66.75;102007.93;87988;1281;94845;-78
2022/03/27 05:16:18;;;;;;;9.50;3.50;;;;;;;0.34;66.85;102009.36;88040;1281;77891;-76
2022/03/27 05:18:26;;;;;;;8.40;3.80;;;;;;;0.48;66.61;102010.66;88028;1281;82986;-76
2022/03/27 05:20:39;;;;;;;8.80;3.60;;;;;;;0.60;66.69;102018.71;88012;1281;98958;-77
2022/03/27 05:22:48;;;;;;;9.60;3.70;;;;;;;0.80;66.34;102020.42;88041;1281;88022;-78
2022/03/27 05:24:57;;;;;;;8.70;3.20;;;;;;;1.01;66.07;102032.08;88007;1281;94110;-77
2022/03/27 05:27:06;;;;;;;7.60;3.80;;;;;;;1.23;65.74;102035.81;87988;1281;79197;-78
2022/03/27 05:29:18;;;;;;;9.80;3.60;;;;;;;1.39;65.45;102033.92;88005;1281;83596;-79
2022/03/27 05:31:27;;;;;;;7.70;3.10;;;;;;;1.55;65.27;102037.06;88003;1281;100097;-79
2022/03/27 05:33:36;;;;;;;10.80;3.20;;;;;;;1.67;65.04;102036.99;88024;1280;88463;-77
2022/03/27 05:35:45;;;;;;;7.10;3.10;;;;;;;1.74;65.01;102037.48;88037;1279;95128;-78
2022/03/27 05:37:56;;;;;;;8.30;3.60;;;;;;;1.80;64.58;102039.09;87990;1281;76777;-78
2022/03/27 05:40:06;;;;;;;9.60;3.40;;;;;;;1.84;64.51;102036.88;87984;1281;82075;-77
2022/03/27 05:42:16;;;;;;;7.90;3.30;;;;;;;1.92;64.35;102037.09;88010;1280;99728;-77
2022/03/27 05:44:25;;;;;;;6.50;3.00;;;;;;;2.01;64.41;102035.83;88011;1281;86668;-77
2022/03/27 05:46:34;;;;;;;7.80;3.10;;;;;;;2.18;64.23;102036.69;88041;1281;94010;-75
2022/03/27 05:48:44;;;;;;;10.00;2.90;;;;;;;2.35;63.99;102033.67;88012;1279;76727;-75
2022/03/27 05:50:56;;;;;;;7.50;2.20;;;;;;;2.54;64.05;102041.70;88049;1280;81118;-76
2022/03/27 05:53:07;;;;;;;6.30;1.90;;;;;;;2.91;63.76;102043.21;88028;1280;99025;-74
2022/03/27 05:55:17;;;;;;;7.30;2.10;;;;;;;3.50;63.83;102039.74;87990;1281;87557;-76
2022/03/27 05:57:26;;;;;;;5.00;2.40;;;;;;;4.50;63.64;102050.14;87977;1279;95580;-77
2022/03/27 05:59:35;;;;;;;6.20;2.50;;;;;;;5.47;62.62;102045.57;88007;1281;77911;-77
2022/03/27 06:01:47;;;;;;;4.90;2.30;;;;;;;6.29;61.94;102050.39;88016;1279;80693;-76
2022/03/27 06:03:56;;;;;;;6.20;2.70;;;;;;;7.61;61.30;102037.85;88017;1280;100143;-77
2022/03/27 06:06:06;;;;;;;5.80;2.60;;;;;;;8.99;60.38;102030.77;88049;1281;88304;-74
2022/03/27 06:08:18;;;;;;;6.70;2.10;;;;;;;10.08;58.44;102038.67;88008;1281;94775;-74
2022/03/27 06:10:31;;;;;;;5.80;2.50;;;;;;;11.25;56.85;102040.79;88001;1281;78611;-76
2022/03/27 06:12:40;;;;;;;7.00;2.60;;;;;;;12.19;55.22;102034.98;88062;1281;82756;-76
2022/03/27 06:14:49;;;;;;;7.80;3.00;;;;;;;13.04;53.93;102042.14;88032;1281;99961;-76
2022/03/27 06:16:59;;;;;;;4.70;2.00;;;;;;;13.56;52.33;102044.68;88025;1280;86713;-76
2022/03/27 06:19:08;;;;;;;6.80;2.50;;;;;;;14.32;50.64;102049.30;88000;1280;95869;-77
2022/03/27 06:21:17;;;;;;;4.70;2.50;;;;;;;14.43;48.79;102052.48;88063;1280;77682;-74
2022/03/27 06:23:26;;;;;;;4.90;2.50;;;;;;;14.64;47.40;102054.90;87994;1281;82117;-73
2022/03/27 06:25:38;;;;;;;3.30;1.90;;;;;;;15.29;46.86;102058.70;87993;1281;100227;-73
2022/03/27 06:27:51;;;;;;;4.40;2.20;;;;;;;15.44;44.34;102057.15;88003;1279;89155;-74
2022/03/27 06:30:00;;;;;;;3.10;1.60;;;;;;;15.66;43.79;102056.88;87969;1281;93018;-74
2022/03/27 06:32:11;;;;;;;5.10;1.80;;;;;;;16.04;42.43;102056.14;88017;1279;79615;-73
2022/03/27 06:34:21;;;;;;;4.30;1.90;;;;;;;16.35;41.06;102059.50;88027;1279;82719;-74
2022/03/27 06:36:34;;;;;;;3.70;1.80;;;;;;;16.35;40.36;102063.22;87978;1279;98854;-74
2022/03/27 06:38:43;;;;;;;3.50;1.70;;;;;;;15.65;39.20;102067.89;88011;1280;89633;-74
2022/03/27 06:40:53;;;;;;;5.60;1.90;;;;;;;15.40;39.02;102073.20;88020;1280;95919;-76
2022/03/27 06:43:01;;;;;;;5.20;2.10;;;;;;;15.44;38.82;102072.20;87995;1279;77842;-76
2022/03/27 06:45:14;;;;;;;4.40;1.80;;;;;;;15.10;38.43;102076.95;88038;1279;81741;-75
2022/03/27 06:47:26;;;;;;;4.30;2.10;;;;;;;15.57;38.47;102068.30;88035;1279;98427;-76
2022/03/27 06:49:35;;;;;;;3.90;1.80;;;;;;;16.66;37.53;102064.98;88004;1280;88960;-75
2022/03/27 06:51:44;;;;;;;6.30;2.10;;;;;;;17.50;36.16;102066.95;88017;1280;94599;-75
2022/03/27 06:53:58;;;;;;;3.40;2.10;;;;;;;17.90;35.75;102066.91;87993;1280;78423;-75
2022/03/27 06:56:08;;;;;;;3.00;1.60;;;;;;;18.35;34.77;102067.02;88026;1279;80726;-75
2022/03/27 06:58:17;;;;;;;4.90;1.90;;;;;;;18.72;33.57;102069.07;88015;1279;98716;-75
2022/03/27 07:05:39;;;;;;;2.80;2.00;;;;;;;19.71;31.35;102074.18;85278;1313;600598;-76
2022/03/27 07:07:52;;;;;;;4.90;1.50;;;;;;;19.13;30.77;102088.95;87789;1283;78709;-74
2022/03/27 07:10:01;;;;;;;2.70;1.50;;;;;;;18.47;30.09;102085.95;87599;1284;82156;-73
2022/03/27 07:12:12;;;;;;;3.70;1.70;;;;;;;18.30;30.43;102085.93;87569;1286;97747;-75
2022/03/27 07:14:24;;;;;;;3.90;1.90;;;;;;;17.63;30.15;102091.70;88262;1273;87339;-74
2022/03/27 07:16:35;;;;;;;4.40;1.70;;;;;;;16.59;30.42;102097.70;88250;1273;94470;-75
2022/03/27 07:18:49;;;;;;;3.90;1.80;;;;;;;16.71;30.24;102098.99;85772;1271;3324959;-75
2022/03/27 07:20:57;;;;;;;;;;;;;;;17.39;30.33;102096.16;88347;1271;83322;-75
2022/03/27 07:23:10;;;;;;;3.50;1.80;;;;;;;18.19;30.08;102088.67;88311;1271;98733;-72
2022/03/27 07:25:19;;;;;;;4.40;1.80;;;;;;;18.59;29.41;102088.36;88319;1273;87852;-72
2022/03/27 07:27:28;;;;;;;4.10;1.70;;;;;;;18.62;29.04;102091.20;88323;1271;94785;-72
2022/03/27 07:29:37;;;;;;;2.40;1.20;;;;;;;18.60;28.31;102094.55;88245;1273;79618;-72
2022/03/27 07:31:48;;;;;;;3.70;1.90;;;;;;;18.72;28.46;102094.59;88320;1271;80597;-68
2022/03/27 07:33:57;;;;;;;2.90;1.70;;;;;;;18.96;28.00;102100.08;88295;1271;96717;-68
2022/03/27 07:36:06;;;;;;;4.60;1.90;;;;;;;19.17;28.38;102097.78;88307;1271;89550;-75
2022/03/27 07:38:16;;;;;;;3.00;1.80;;;;;;;19.85;28.10;102100.53;88294;1271;93664;-74
2022/03/27 07:40:26;;;;;;;2.50;1.40;;;;;;;20.14;27.60;102096.52;88283;1273;80763;-72
2022/03/27 07:42:35;;;;;;;3.90;1.40;;;;;;;20.46;27.05;102089.55;88322;1271;81501;-73
2022/03/27 07:44:45;;;;;;;3.60;1.40;;;;;;;20.78;26.41;102093.80;88281;1273;95765;-73
2022/03/27 07:46:58;;;;;;;3.50;1.60;;;;;;;21.38;25.77;102087.77;88292;1273;86683;-71
2022/03/27 07:49:08;;;;;;;3.30;1.50;;;;;;;21.87;25.97;102086.52;88301;1271;93222;-73
2022/03/27 07:51:17;;;;;;;3.70;1.20;;;;;;;21.83;25.41;102090.17;88328;1271;79940;-72
2022/03/27 07:53:27;;;;;;;2.10;1.20;;;;;;;21.89;24.61;102094.20;88328;1271;82939;-72
2022/03/27 07:55:39;;;;;;;2.50;1.20;;;;;;;22.17;24.72;102099.54;88294;1271;98345;-73
2022/03/27 07:57:48;;;;;;;2.30;1.00;;;;;;;22.27;24.43;102092.84;88312;1271;88777;-72
2022/03/27 07:59:58;;;;;;;2.50;1.40;;;;;;;22.31;23.78;102092.86;88293;1271;93427;-71
2022/03/27 08:02:07;;;;;;;1.80;1.00;;;;;;;22.20;23.01;102095.06;88294;1273;78688;-71
2022/03/27 08:04:17;;;;;;;2.60;1.50;;;;;;;21.92;22.71;102088.90;88311;1270;79861;-73
2022/03/27 08:06:29;;;;;;;1.90;1.20;;;;;;;21.59;22.21;102087.60;88295;1271;95856;-73
2022/03/27 08:08:42;;;;;;;1.70;1.00;;;;;;;21.37;21.85;102086.34;88302;1272;88048;-72
2022/03/27 08:10:55;;;;;;;2.00;1.10;;;;;;;21.40;21.31;102081.91;88320;1271;95032;-72
2022/03/27 08:13:02;;;;;;;;;;;;;;;21.57;20.90;102076.56;88321;1271;78535;-72
2022/03/27 08:15:19;;;;;;;2.90;1.10;;;;;;;21.49;20.87;102072.21;88336;1271;80734;-74
2022/03/27 08:17:31;;;;;;;2.30;1.20;;;;;;;21.21;20.67;102068.27;88271;1273;98123;-73
2022/03/27 08:19:42;;;;;;;4.20;1.20;;;;;;;20.94;20.68;102066.24;88286;1273;86912;-72
2022/03/27 08:21:55;;;;;;;1.90;1.20;;;;;;;20.97;20.32;102067.58;88322;1271;94737;-71
2022/03/27 08:24:06;;;;;;;4.00;1.40;;;;;;;20.99;20.34;102067.61;88310;1271;79697;-76
2022/03/27 08:28:43;;;;;;;2.00;1.00;;;;;;;20.59;20.36;102079.67;88309;1271;98294;-75
2022/03/27 08:30:56;;;;;;;2.90;1.10;;;;;;;20.36;20.26;102085.92;88355;1271;86719;-72
2022/03/27 08:33:05;;;;;;;1.80;1.00;;;;;;;20.26;20.42;102088.64;88315;1271;95941;-72
2022/03/27 08:35:14;;;;;;;2.90;1.10;;;;;;;20.27;20.52;102087.80;88263;1271;79429;-74
2022/03/27 08:37:27;;;;;;;2.10;0.90;;;;;;;20.69;20.09;102085.75;88310;1271;81099;-72
2022/03/27 08:39:37;;;;;;;2.10;0.90;;;;;;;20.96;19.89;102089.39;88330;1271;97870;-73
2022/03/27 08:41:48;;;;;;;1.80;1.00;;;;;;;21.22;19.61;102087.34;88355;1271;89106;-73
2022/03/27 08:44:03;;;;;;;2.10;1.20;;;;;;;21.21;19.62;102095.04;88290;1271;95728;-71
2022/03/27 08:46:16;;;;;;;1.80;0.90;;;;;;;21.33;19.40;102089.58;88298;1271;80142;-70
2022/03/27 08:48:23;;;;;;;;;;;;;;;21.54;19.61;102091.20;88339;1271;82115;-71
2022/03/27 08:50:39;;;;;;;2.40;1.20;;;;;;;20.98;19.45;102088.60;88337;1271;96524;-82
2022/03/27 08:52:59;;;;;;;2.20;1.00;;;;;;;20.73;19.36;102093.22;88322;1271;89051;-69
2022/03/27 08:55:17;;;;;;;1.50;1.00;;;;;;;20.10;19.02;102097.98;88320;1271;92141;-73
2022/03/27 08:57:58;;;;;;;1.60;1.00;;;;;;;19.59;19.18;102097.98;88266;1271;77152;-70
2022/03/27 09:00:10;;;;;;;2.20;1.10;;;;;;;19.25;19.49;102105.65;88325;1271;79462;-71
2022/03/27 09:02:23;;;;;;;1.50;1.10;;;;;;;19.43;19.35;102107.77;88303;1271;96708;-70
2022/03/27 09:04:37;;;;;;;2.90;1.10;;;;;;;19.40;19.56;102100.30;88311;1271;89109;-72
2022/03/27 09:06:47;;;;;;;4.10;1.60;;;;;;;19.13;19.37;102094.47;88346;1271;94367;-75
2022/03/27 09:08:59;;;;;;;2.60;1.50;;;;;;;18.81;19.48;102093.64;88333;1271;78118;-70
2022/03/27 09:11:13;;;;;;;1.90;0.90;;;;;;;18.83;19.68;102092.09;88345;1271;83133;-70
2022/03/27 09:13:24;;;;;;;2.40;1.10;;;;;;;19.39;19.43;102096.23;88310;1271;96845;-69
2022/03/27 09:15:36;;;;;;;2.30;1.00;;;;;;;19.65;19.21;102090.96;88340;1271;88921;-70
2022/03/27 09:18:05;;;;;;;2.20;1.30;;;;;;;19.88;18.99;102093.58;88276;1271;92909;-70
2022/03/27 09:20:29;;;;;;;2.70;1.30;;;;;;;19.67;19.50;102091.52;88291;1271;79052;-70
2022/03/27 09:22:38;;;;;;;2.70;1.20;;;;;;;19.36;19.72;102092.67;88285;1271;81826;-70
2022/03/27 09:24:57;;;;;;;2.80;1.30;;;;;;;19.63;19.85;102085.33;88322;1271;97273;-69
2022/03/27 09:27:09;;;;;;;7.80;1.70;;;;;;;20.35;19.64;102082.30;88212;1274;88176;-70
2022/03/27 09:29:19;;;;;;;2.20;1.10;;;;;;;20.08;19.18;102091.73;88317;1271;95312;-70
2022/03/27 09:31:31;;;;;;;2.70;1.30;;;;;;;19.37;19.37;102099.82;88287;1271;76324;-69
2022/03/27 09:33:49;;;;;;;2.90;1.50;;;;;;;18.84;19.50;102100.90;88337;1271;83006;-70
2022/03/27 09:36:10;;;;;;;3.10;1.20;;;;;;;18.73;19.49;102108.38;88347;1271;97873;-69
2022/03/27 09:38:21;;;;;;;3.10;1.40;;;;;;;18.68;19.65;102101.05;88293;1271;89745;-69
2022/03/27 09:40:38;;;;;;;2.90;1.40;;;;;;;18.50;19.45;102103.73;88291;1271;94198;-69
2022/03/27 09:43:09;;;;;;;2.60;1.20;;;;;;;17.88;19.72;102099.08;88295;1271;78009;-68
2022/03/27 09:45:23;;;;;;;2.60;1.10;;;;;;;17.58;20.03;102091.98;88291;1271;83770;-69
2022/03/27 09:47:35;;;;;;;3.50;1.90;;;;;;;17.21;20.08;102091.76;88291;1271;98322;-69
2022/03/27 09:49:47;;;;;;;3.50;1.40;;;;;;;16.96;20.17;102086.05;88320;1271;88873;-70
2022/03/27 09:52:00;;;;;;;1.80;1.10;;;;;;;16.62;20.30;102086.08;88335;1271;94418;-70
2022/03/27 09:54:10;;;;;;;2.30;1.00;;;;;;;16.29;20.54;102088.14;88311;1271;78471;-70
2022/03/27 09:56:22;;;;;;;2.30;1.20;;;;;;;15.87;20.90;102089.77;88318;1271;79736;-69
2022/03/27 09:58:40;;;;;;;2.20;1.10;;;;;;;15.63;20.98;102090.44;88318;1271;96218;-70
2022/03/27 10:01:10;;;;;;;2.30;1.40;;;;;;;15.31;21.21;102093.67;88298;1271;88897;-69
2022/03/27 10:03:25;;;;;;;2.80;1.10;;;;;;;14.78;21.63;102091.77;88323;1271;95136;-69
2022/03/27 10:05:36;;;;;;;3.80;1.30;;;;;;;14.56;21.70;102090.45;88295;1271;80520;-70
2022/03/27 10:07:48;;;;;;;3.40;1.20;;;;;;;14.50;21.83;102080.13;88303;1271;82134;-70
2022/03/27 10:10:04;;;;;;;3.80;1.50;;;;;;;14.33;21.97;102074.28;88295;1271;98417;-69
2022/03/27 10:12:16;;;;;;;2.00;1.30;;;;;;;14.41;22.18;102065.78;88319;1271;87735;-69
2022/03/27 10:14:26;;;;;;;2.20;1.20;;;;;;;14.80;22.52;102055.83;88274;1271;94903;-70
2022/03/27 10:16:38;;;;;;;1.70;1.00;;;;;;;14.87;22.22;102054.91;88272;1271;78377;-70
2022/03/27 10:18:50;;;;;;;2.50;1.10;;;;;;;14.42;22.23;102057.77;88283;1273;79927;-68